Time;durP1;ratioP1;P1;durP2;ratioP2;P2;SDS_P1;SDS_P2;PMS_P1;PMS_P2;Temp;Humidity;BMP_temperature;BMP_pressure;BME280_temperature;BME280_humidity;BME280_pressure;Samples;Min_cycle;Max_cycle;Signal;HPM_P1;HPM_P2
2022/02/28 00:00:43;;;;;;;;;15.25;14.50;;;;;5.28;51.68;102618.84;2393831;28;45383;-88
2022/02/28 00:01:54;;;;;;;;;19.50;16.50;;;;;5.31;51.71;102624.09;2393857;28;44702;-89
2022/02/28 00:03:04;;;;;;;;;15.25;13.25;;;;;5.32;51.89;102623.25;2397647;28;45451;-88
2022/02/28 00:04:15;;;;;;;;;21.75;19.00;;;;;5.31;52.06;102613.66;2401428;28;44846;-87
2022/02/28 00:05:26;;;;;;;;;21.75;17.50;;;;;5.34;51.86;102616.34;2393593;28;46095;-87
2022/02/28 00:06:36;;;;;;;;;22.25;18.25;;;;;5.33;51.73;102617.22;2393830;28;44699;-88
2022/02/28 00:07:49;;;;;;;;;19.00;17.75;;;;;5.34;52.25;102611.13;2392665;28;47022;-86
2022/02/28 00:08:59;;;;;;;;;15.00;13.50;;;;;5.34;52.05;102611.13;2393421;28;44621;-87
2022/02/28 00:10:10;;;;;;;;;14.00;14.00;;;;;5.39;51.84;102624.25;2393800;28;46337;-87
2022/02/28 00:11:20;;;;;;;;;16.25;15.00;;;;;5.38;52.04;102620.75;2393542;28;45735;-87
2022/02/28 00:12:30;;;;;;;;;17.00;16.75;;;;;5.39;51.63;102619.03;2393903;28;46206;-87
2022/02/28 00:13:41;;;;;;;;;18.50;17.25;;;;;5.39;52.54;102619.03;2398751;28;45215;-87
2022/02/28 00:14:52;;;;;;;;;19.75;14.75;;;;;5.39;52.13;102617.31;2394307;28;46252;-87
2022/02/28 00:16:02;;;;;;;;;15.75;15.75;;;;;5.40;51.52;102621.69;2393775;28;44612;-86
2022/02/28 00:17:13;;;;;;;;;19.25;17.25;;;;;5.39;51.91;102619.91;2393597;28;46269;-87
2022/02/28 00:18:23;;;;;;;;;19.00;17.00;;;;;5.42;51.72;102624.31;2393634;28;44617;-88
2022/02/28 00:19:34;;;;;;;;;18.00;16.75;;;;;5.39;51.93;102613.81;2393149;28;45519;-90
2022/02/28 00:20:44;;;;;;;;;14.00;12.25;;;;;5.40;52.22;102626.91;2393374;28;45367;-88
2022/02/28 00:21:54;;;;;;;;;14.00;13.25;;;;;5.42;51.47;102623.44;2396496;28;47188;-90
2022/02/28 00:23:05;;;;;;;;;16.75;13.00;;;;;5.45;52.01;102633.94;2394886;28;45418;-90
2022/02/28 00:24:15;;;;;;;;;13.25;13.00;;;;;5.45;51.45;102633.94;2398525;28;48227;-90
2022/02/28 00:25:26;;;;;;;;;21.50;14.25;;;;;5.47;51.85;102638.34;2386278;28;45222;-90
2022/02/28 00:26:36;;;;;;;;;13.75;13.75;;;;;5.45;51.55;102624.38;2386262;28;47445;-90
2022/02/28 00:27:47;;;;;;;;;17.25;15.25;;;;;5.45;51.99;102634.81;2396275;28;45268;-91
2022/02/28 00:28:57;;;;;;;;;18.00;13.50;;;;;5.47;51.62;102632.22;2402883;28;45269;-91
2022/02/28 00:30:10;;;;;;;;;16.00;14.25;;;;;5.48;51.60;102634.00;2403107;28;45321;-90
2022/02/28 00:31:21;;;;;;;;;17.50;13.25;;;;;5.48;51.59;102631.38;2393857;28;47357;-89
2022/02/28 00:32:31;;;;;;;;;19.50;16.75;;;;;5.46;51.73;102630.47;2393261;28;44577;-89
2022/02/28 00:33:41;;;;;;;;;13.75;12.00;;;;;5.48;51.75;102634.84;2393649;28;46253;-90
2022/02/28 00:34:52;;;;;;;;;15.25;12.75;;;;;5.49;51.49;102639.22;2393733;28;45223;-85
2022/02/28 00:36:04;;;;;;;;;12.25;10.75;;;;;5.50;51.77;102637.50;2393464;28;45436;-85
2022/02/28 00:37:15;;;;;;;;;12.75;12.25;;;;;5.48;51.93;102634.00;2393154;28;45247;-85
2022/02/28 00:38:26;;;;;;;;;16.00;13.75;;;;;5.48;52.18;102639.22;2393477;28;45495;-85
2022/02/28 00:39:36;;;;;;;;;17.75;17.00;;;;;5.49;51.99;102633.13;2392893;28;45310;-86
2022/02/28 00:40:47;;;;;;;;;19.00;16.00;;;;;5.49;52.14;102630.53;2392953;28;45320;-85
2022/02/28 00:41:57;;;;;;;;;17.75;14.25;;;;;5.48;52.04;102634.84;2393662;28;45270;-85
2022/02/28 00:43:08;;;;;;;;;16.75;14.50;;;;;5.50;51.83;102632.28;2393390;28;45360;-86
2022/02/28 00:44:18;;;;;;;;;13.75;13.25;;;;;5.50;51.65;102640.13;2402896;28;45253;-86
2022/02/28 00:45:28;;;;;;;;;15.75;13.75;;;;;5.48;51.75;102634.84;2394824;28;45611;-86
2022/02/28 00:46:40;;;;;;;;;14.00;14.00;;;;;5.48;52.15;102639.22;2392810;28;45223;-88
2022/02/28 00:47:51;;;;;;;;;18.00;13.00;;;;;5.48;51.74;102634.00;2398354;28;45456;-88
2022/02/28 00:49:02;;;;;;;;;15.00;13.25;;;;;5.51;51.91;102641.84;2402426;28;45172;-90
2022/02/28 00:50:12;;;;;;;;;13.75;13.75;;;;;5.51;51.79;102647.97;2399249;28;48318;-90
2022/02/28 00:51:23;;;;;;;;;14.00;12.00;;;;;5.51;51.99;102636.66;2393263;28;44758;-90
2022/02/28 00:52:33;;;;;;;;;16.75;13.50;;;;;5.53;51.86;102645.41;2393254;28;45283;-89
2022/02/28 00:53:44;;;;;;;;;17.25;15.00;;;;;5.50;51.83;102634.91;2393587;28;45340;-90
2022/02/28 00:54:54;;;;;;;;;14.50;14.50;;;;;5.49;52.02;102635.75;2393016;28;47252;-92
2022/02/28 00:56:05;;;;;;;;;12.75;12.25;;;;;5.50;51.90;102637.50;2394606;28;45181;-91
2022/02/28 00:57:15;;;;;;;;;16.50;12.75;;;;;5.50;51.19;102632.28;2402462;28;45409;-91
2022/02/28 00:58:25;;;;;;;;;12.75;12.75;;;;;5.51;52.07;102636.66;2394994;28;45433;-91
2022/02/28 00:59:36;;;;;;;;;14.25;13.25;;;;;5.51;52.02;102636.66;2385965;28;47426;-90
2022/02/28 01:00:47;;;;;;;;;10.00;10.00;;;;;5.51;52.04;102634.03;2393217;28;45456;-89
2022/02/28 01:01:57;;;;;;;;;13.50;13.50;;;;;5.52;51.69;102646.25;2393023;28;46689;-89
2022/02/28 01:03:08;;;;;;;;;13.50;12.00;;;;;5.51;52.05;102647.06;2394211;28;45498;-92
2022/02/28 01:04:18;;;;;;;;;15.75;12.25;;;;;5.49;51.92;102647.06;2394169;28;45286;-92
2022/02/28 01:05:29;;;;;;;;;14.50;13.50;;;;;5.51;52.18;102652.28;2402562;28;44646;-92
2022/02/28 01:06:39;;;;;;;;;16.00;11.75;;;;;5.51;52.17;102660.13;2393322;28;47158;-91
2022/02/28 01:07:50;;;;;;;;;11.25;11.25;;;;;5.52;52.07;102656.69;2393853;28;45204;-90
2022/02/28 01:09:03;;;;;;;;;14.25;12.25;;;;;5.51;52.32;102652.28;2393135;28;45304;-92
2022/02/28 01:10:16;;;;;;;;;17.00;13.50;;;;;5.50;51.93;102655.78;2393693;28;45143;-91
2022/02/28 01:11:27;;;;;;;;;17.25;14.50;;;;;5.50;51.99;102659.28;2398035;28;45334;-91
2022/02/28 01:12:38;;;;;;;;;17.25;14.25;;;;;5.48;52.26;102647.03;2401519;28;45423;-92
2022/02/28 01:13:48;;;;;;;;;17.00;14.25;;;;;5.50;52.20;102656.66;2392950;28;47178;-90
2022/02/28 01:14:58;;;;;;;;;16.50;13.75;;;;;5.52;52.31;102656.69;2386690;28;44616;-92
2022/02/28 01:16:09;;;;;;;;;15.25;12.75;;;;;5.53;51.98;102652.34;2396739;28;45263;-90
2022/02/28 01:17:20;;;;;;;;;14.50;14.50;;;;;5.52;51.97;102651.47;2403341;28;44579;-91
2022/02/28 01:18:30;;;;;;;;;17.25;14.75;;;;;5.52;52.12;102654.06;2392901;28;47159;-92
2022/02/28 01:19:41;;;;;;;;;18.00;14.50;;;;;5.50;52.07;102648.84;2391467;28;45427;-89
2022/02/28 01:20:53;;;;;;;;;16.50;13.75;;;;;5.54;51.91;102648.88;2400138;28;47218;-90
2022/02/28 01:22:03;;;;;;;;;16.75;14.00;;;;;5.50;51.71;102645.34;2392841;28;45221;-89
2022/02/28 01:23:14;;;;;;;;;19.75;14.25;;;;;5.52;52.08;102646.25;2409933;28;47610;-89
2022/02/28 01:24:25;;;;;;;;;14.50;13.00;;;;;5.52;52.14;102651.47;2397577;28;45456;-90
2022/02/28 01:25:35;;;;;;;;;13.25;12.50;;;;;5.52;52.60;102651.47;2392636;28;46137;-90
2022/02/28 01:26:48;;;;;;;;;11.50;11.50;;;;;5.50;52.14;102647.94;2393624;28;45298;-90
2022/02/28 01:27:58;;;;;;;;;17.50;17.00;;;;;5.50;51.79;102646.22;2401701;28;47167;-90
2022/02/28 01:29:09;;;;;;;;;12.75;12.50;;;;;5.49;52.19;102640.97;2399642;28;45290;-89
2022/02/28 01:30:20;;;;;;;;;11.50;10.75;;;;;5.50;52.17;102648.84;2393433;28;45265;-91
2022/02/28 01:31:30;;;;;;;;;12.25;10.25;;;;;5.50;52.34;102647.94;2395022;28;45430;-91
2022/02/28 01:32:41;;;;;;;;;14.50;14.00;;;;;5.49;52.23;102640.97;2397960;28;45447;-91
2022/02/28 01:33:51;;;;;;;;;14.50;13.75;;;;;5.49;52.03;102644.44;2400490;28;45232;-91
2022/02/28 01:35:03;;;;;;;;;18.25;14.00;;;;;5.51;52.10;102647.06;2393640;28;47331;-91
2022/02/28 01:36:13;;;;;;;;;20.50;17.00;;;;;5.48;52.26;102645.28;2402194;28;45228;-91
2022/02/28 01:37:23;;;;;;;;;15.00;14.00;;;;;5.49;52.50;102647.06;2399412;28;48062;-90
2022/02/28 01:38:34;;;;;;;;;15.00;14.00;;;;;5.49;52.05;102651.38;2395104;28;45277;-91
2022/02/28 01:39:46;;;;;;;;;16.00;13.50;;;;;5.47;52.15;102653.97;2402699;28;47210;-91
2022/02/28 01:40:57;;;;;;;;;4.50;1.00;;;;;5.47;52.35;102647.88;2388000;28;44754;-90
2022/02/28 01:42:07;;;;;;;;;13.00;12.25;;;;;5.47;52.07;102648.75;2394599;28;46390;-93
2022/02/28 01:43:18;;;;;;;;;13.50;12.25;;;;;5.46;52.42;102648.72;2394564;28;44605;-89
2022/02/28 01:44:28;;;;;;;;;14.00;13.50;;;;;5.45;52.42;102641.75;2394213;28;45455;-85
2022/02/28 01:45:38;;;;;;;;;20.50;16.25;;;;;5.42;52.40;102645.19;2393815;28;45395;-87
2022/02/28 01:46:49;;;;;;;;;16.75;13.50;;;;;5.44;52.43;102648.69;2394176;28;46340;-87
2022/02/28 01:47:59;;;;;;;;;15.75;14.25;;;;;5.43;52.46;102644.34;2395048;28;44608;-87
2022/02/28 01:49:09;;;;;;;;;13.25;11.75;;;;;5.42;52.53;102645.19;2394637;28;46371;-88
2022/02/28 01:50:21;;;;;;;;;15.25;13.25;;;;;5.38;52.42;102639.00;2394859;28;44609;-87
2022/02/28 01:51:34;;;;;;;;;18.25;12.75;;;;;5.39;52.31;102642.50;2394848;28;45331;-87
2022/02/28 01:52:45;;;;;;;;;17.00;14.50;;;;;5.38;52.19;102643.38;2399891;28;45285;-87
2022/02/28 01:53:56;;;;;;;;;14.00;13.75;;;;;5.36;52.52;102638.09;2402208;28;45524;-88
2022/02/28 01:55:08;;;;;;;;;16.25;13.75;;;;;5.38;52.33;102643.38;2394898;28;45313;-88
2022/02/28 01:56:20;;;;;;;;;18.75;13.50;;;;;5.34;52.02;102637.19;2394569;28;46866;-88
2022/02/28 01:57:30;;;;;;;;;14.25;13.00;;;;;5.36;52.23;102650.28;2394800;28;45192;-89
2022/02/28 01:58:40;;;;;;;;;13.25;12.75;;;;;5.36;52.37;102645.06;2393927;28;47001;-89
2022/02/28 01:59:51;;;;;;;;;16.75;16.75;;;;;5.33;52.25;102640.69;2396798;28;45309;-90
2022/02/28 02:01:03;;;;;;;;;13.25;11.75;;;;;5.32;52.52;102643.22;2400991;28;46432;-90
2022/02/28 02:02:13;;;;;;;;;13.50;13.00;;;;;5.33;52.40;102635.47;2395027;28;45198;-91
2022/02/28 02:03:23;;;;;;;;;17.25;13.25;;;;;5.29;52.57;102633.63;2396988;28;45218;-88
2022/02/28 02:04:35;;;;;;;;;16.75;13.50;;;;;5.29;52.75;102631.91;2404223;28;45347;-88
2022/02/28 02:05:46;;;;;;;;;15.75;14.00;;;;;5.28;52.61;102635.34;2395055;28;46379;-92
2022/02/28 02:06:57;;;;;;;;;17.00;15.25;;;;;5.30;52.62;102638.00;2403385;28;44742;-90
2022/02/28 02:08:08;;;;;;;;;23.25;14.50;;;;;5.26;52.39;102634.44;2405516;28;45450;-91
2022/02/28 02:09:18;;;;;;;;;15.25;12.75;;;;;5.26;52.79;102631.84;2399371;28;44616;-92
2022/02/28 02:10:29;;;;;;;;;15.75;13.00;;;;;5.24;52.32;102633.53;2395012;28;45525;-85
2022/02/28 02:11:40;;;;;;;;;20.00;16.00;;;;;5.23;52.67;102633.50;2399841;28;44619;-84
2022/02/28 02:12:51;;;;;;;;;14.75;13.00;;;;;5.23;52.71;102629.19;2403085;28;47475;-86
2022/02/28 02:14:01;;;;;;;;;12.50;12.50;;;;;5.18;52.56;102625.59;2391500;28;45232;-86
2022/02/28 02:15:14;;;;;;;;;16.25;16.00;;;;;5.21;52.61;102632.59;2391130;28;45706;-86
2022/02/28 02:16:25;;;;;;;;;19.50;16.75;;;;;5.18;53.04;102630.81;2394668;28;44624;-86
2022/02/28 02:17:37;;;;;;;;;17.75;15.75;;;;;5.16;52.68;102629.91;2393807;28;48124;-86
2022/02/28 02:18:47;;;;;;;;;16.50;14.25;;;;;5.12;52.64;102626.34;2394108;28;44712;-86
2022/02/28 02:20:02;;;;;;;;;17.75;13.25;;;;;5.13;52.53;102633.34;2394356;28;45444;-86
2022/02/28 02:21:13;;;;;;;;;16.50;16.50;;;;;5.11;52.73;102624.56;2393854;28;44654;-85
2022/02/28 02:22:23;;;;;;;;;15.75;12.00;;;;;5.08;52.91;102627.13;2393740;28;45259;-85
2022/02/28 02:23:34;;;;;;;;;12.00;11.25;;;;;5.06;52.89;102631.44;2393864;28;44694;-85
2022/02/28 02:24:44;;;;;;;;;12.00;11.75;;;;;5.04;52.82;102631.41;2386935;28;46988;-85
2022/02/28 02:25:57;;;;;;;;;13.00;12.25;;;;;5.04;52.95;102627.91;2395165;28;45411;-85
2022/02/28 02:27:07;;;;;;;;;17.75;12.75;;;;;5.01;52.87;102627.84;2393821;28;47012;-85
2022/02/28 02:28:19;;;;;;;;;16.50;16.50;;;;;5.00;53.39;102636.50;2386899;28;45370;-85
2022/02/28 02:29:35;;;;;;;;;16.75;13.75;;;;;4.96;53.52;102625.16;2393930;28;45199;-85
2022/02/28 02:30:53;;;;;;;;;13.25;13.25;;;;;4.94;53.56;102632.91;2394635;28;45212;-86
2022/02/28 02:32:15;;;;;;;;;12.75;12.75;;;;;4.92;53.24;102629.41;2394539;28;46878;-86
2022/02/28 02:33:25;;;;;;;;;14.00;12.00;;;;;4.91;53.31;102625.06;2385379;28;44644;-85
2022/02/28 02:34:36;;;;;;;;;16.00;13.00;;;;;4.87;53.37;102628.44;2392136;28;45353;-85
2022/02/28 02:35:51;;;;;;;;;14.75;12.25;;;;;4.87;53.69;102631.03;2394554;28;45215;-85
2022/02/28 02:37:02;;;;;;;;;16.50;11.00;;;;;4.86;53.46;102628.41;2394193;28;45312;-86
2022/02/28 02:38:12;;;;;;;;;13.50;11.00;;;;;4.84;53.29;102623.13;2394584;28;45281;-84
2022/02/28 02:39:23;;;;;;;;;12.25;11.50;;;;;4.82;53.46;102623.13;2393627;28;48089;-84
2022/02/28 02:40:33;;;;;;;;;12.75;11.00;;;;;4.81;53.22;102623.09;2386725;28;45260;-84
2022/02/28 02:41:43;;;;;;;;;13.00;13.00;;;;;4.81;53.49;102629.19;2393828;28;45298;-84
2022/02/28 02:42:54;;;;;;;;;11.75;7.50;;;;;4.80;53.78;102622.22;2394526;28;45526;-82
2022/02/28 02:44:04;;;;;;;;;21.25;13.50;;;;;4.78;53.73;102628.22;2393620;28;47204;-82
2022/02/28 02:45:15;;;;;;;;;15.50;12.75;;;;;4.79;53.77;102633.47;2393836;28;45263;-82
2022/02/28 02:46:25;;;;;;;;;14.00;11.25;;;;;4.79;53.42;102635.22;2399532;28;46523;-82
2022/02/28 02:47:36;;;;;;;;;14.75;11.75;;;;;4.81;53.97;102638.72;2403069;28;45174;-82
2022/02/28 02:48:46;;;;;;;;;14.00;13.25;;;;;4.76;53.54;102629.94;2400654;28;46342;-82
2022/02/28 02:49:57;;;;;;;;;13.75;11.25;;;;;4.74;53.47;102622.09;2394339;28;44737;-82
2022/02/28 02:51:07;;;;;;;;;12.25;11.25;;;;;4.77;53.41;102636.88;2394393;28;45381;-82
2022/02/28 02:52:18;;;;;;;;;11.00;8.75;;;;;4.77;53.55;102629.06;2394245;28;45255;-82
2022/02/28 02:53:28;;;;;;;;;15.00;14.25;;;;;4.77;53.61;102634.28;2394260;28;46127;-82
2022/02/28 02:54:39;;;;;;;;;10.00;9.75;;;;;4.76;53.55;102627.31;2394505;28;45203;-82
2022/02/28 02:55:49;;;;;;;;;14.00;12.00;;;;;4.76;53.62;102629.94;2399645;28;46177;-82
2022/02/28 02:56:59;;;;;;;;;13.50;12.75;;;;;4.76;53.49;102627.31;2394564;28;45233;-82
2022/02/28 02:58:13;;;;;;;;;17.50;14.50;;;;;4.71;53.28;102617.69;2394229;28;45579;-82
2022/02/28 02:59:24;;;;;;;;;11.25;11.25;;;;;4.75;53.53;102625.56;2395456;28;45047;-83
2022/02/28 03:00:35;;;;;;;;;11.25;9.50;;;;;4.73;53.75;102623.81;2394276;28;45284;-82
2022/02/28 03:01:45;;;;;;;;;15.75;13.75;;;;;4.71;53.24;102614.19;2400224;28;45306;-82
2022/02/28 03:02:55;;;;;;;;;13.75;11.25;;;;;4.72;53.56;102615.94;2396780;28;45463;-82
2022/02/28 03:04:06;;;;;;;;;13.50;11.00;;;;;4.68;53.46;102619.34;2394129;28;45512;-82
2022/02/28 03:05:16;;;;;;;;;11.00;10.00;;;;;4.70;53.90;102623.72;2393992;28;45273;-84
2022/02/28 03:06:27;;;;;;;;;12.75;9.75;;;;;4.67;53.35;102618.44;2394453;28;45141;-85
2022/02/28 03:07:37;;;;;;;;;14.75;12.25;;;;;4.67;53.68;102617.56;2393773;28;46212;-86
2022/02/28 03:08:48;;;;;;;;;12.25;11.50;;;;;4.68;53.89;102625.44;2394179;28;45243;-85
2022/02/28 03:09:58;;;;;;;;;6.50;5.50;;;;;4.67;53.78;102627.97;2394078;28;45333;-82
2022/02/28 03:11:08;;;;;;;;;12.75;12.00;;;;;4.64;53.25;102622.72;2393990;28;45266;-82
2022/02/28 03:12:19;;;;;;;;;11.50;11.00;;;;;4.62;53.34;102627.88;2394114;28;46594;-86
2022/02/28 03:13:29;;;;;;;;;17.00;14.00;;;;;4.61;53.41;102624.41;2393988;28;44771;-86
2022/02/28 03:14:40;;;;;;;;;12.25;11.75;;;;;4.60;53.38;102621.75;2394331;28;45573;-87
2022/02/28 03:15:50;;;;;;;;;14.75;11.50;;;;;4.57;53.69;102619.06;2394231;28;45271;-85
2022/02/28 03:17:00;;;;;;;;;10.50;8.75;;;;;4.57;53.91;102613.88;2394149;28;46353;-85
2022/02/28 03:18:11;;;;;;;;;12.00;10.75;;;;;4.57;53.80;102621.69;2394370;28;45223;-85
2022/02/28 03:19:21;;;;;;;;;14.75;10.00;;;;;4.55;53.90;102620.78;2394147;28;46152;-85
2022/02/28 03:20:31;;;;;;;;;16.75;13.00;;;;;4.53;54.20;102619.88;2393330;28;45253;-83
2022/02/28 03:21:42;;;;;;;;;8.00;6.25;;;;;4.56;53.81;102623.44;2393598;28;45429;-83
2022/02/28 03:22:52;;;;;;;;;11.00;10.25;;;;;4.52;54.19;102618.97;2393290;28;45356;-84
2022/02/28 03:24:03;;;;;;;;;15.50;10.25;;;;;4.50;53.49;102611.13;2393490;28;46402;-84
2022/02/28 03:25:13;;;;;;;;;15.25;13.00;;;;;4.52;53.56;102610.31;2395932;28;45255;-85
2022/02/28 03:26:24;;;;;;;;;11.75;11.25;;;;;4.54;53.83;102609.50;2403120;28;45351;-85
2022/02/28 03:27:36;;;;;;;;;9.75;8.50;;;;;4.54;53.84;102613.81;2394313;28;45330;-85
2022/02/28 03:28:46;;;;;;;;;15.50;11.25;;;;;4.50;53.65;102605.94;2393663;28;46304;-85
2022/02/28 03:29:56;;;;;;;;;9.25;8.75;;;;;4.53;53.48;102614.66;2394260;28;44738;-85
2022/02/28 03:31:08;;;;;;;;;20.75;15.75;;;;;4.51;53.79;102609.41;2388033;28;45467;-85
2022/02/28 03:32:19;;;;;;;;;12.25;11.00;;;;;4.52;53.41;102612.91;2397490;28;45376;-85
2022/02/28 03:33:29;;;;;;;;;16.50;11.25;;;;;4.50;53.72;102605.94;2393899;28;45349;-87
2022/02/28 03:34:40;;;;;;;;;11.00;11.00;;;;;4.49;53.63;102617.19;2393361;28;44599;-87
2022/02/28 03:35:50;;;;;;;;;12.00;11.00;;;;;4.50;53.69;102618.06;2386397;28;46979;-87
2022/02/28 03:37:00;;;;;;;;;14.25;12.50;;;;;4.48;53.54;102615.44;2386304;28;45228;-87
2022/02/28 03:38:11;;;;;;;;;12.75;10.50;;;;;4.48;54.06;102609.34;2393467;28;45484;-87
2022/02/28 03:39:23;;;;;;;;;11.75;11.75;;;;;4.49;53.69;102618.94;2393486;28;45155;-87
2022/02/28 03:40:34;;;;;;;;;14.50;11.00;;;;;4.48;53.44;102617.16;2388591;28;47391;-88
2022/02/28 03:41:44;;;;;;;;;11.75;10.25;;;;;4.46;53.61;102614.53;2393571;28;45404;-80
2022/02/28 03:42:57;;;;;;;;;15.50;11.25;;;;;4.46;54.15;102617.13;2393903;28;45361;-79
2022/02/28 03:44:08;;;;;;;;;22.25;12.25;;;;;4.45;53.84;102623.16;2394189;28;44686;-79
2022/02/28 03:45:18;;;;;;;;;14.25;10.50;;;;;4.46;53.95;102624.06;2393585;28;45282;-79
2022/02/28 03:46:29;;;;;;;;;13.75;10.75;;;;;4.43;54.14;102619.66;2394076;28;45423;-79
2022/02/28 03:47:39;;;;;;;;;11.50;9.75;;;;;4.43;54.02;102618.78;2393938;28;45471;-81
2022/02/28 03:48:49;;;;;;;;;17.25;14.75;;;;;4.44;54.06;102625.75;2393707;28;45380;-83
2022/02/28 03:50:00;;;;;;;;;12.00;9.75;;;;;4.44;53.71;102625.75;2393751;28;45463;-83
2022/02/28 03:51:11;;;;;;;;;16.50;13.50;;;;;4.43;54.09;102619.66;2393365;28;45254;-83
2022/02/28 03:52:21;;;;;;;;;10.00;10.00;;;;;4.44;53.87;102623.16;2392955;28;45272;-83
2022/02/28 03:53:31;;;;;;;;;12.25;11.00;;;;;4.44;53.68;102615.34;2394003;28;45231;-83
2022/02/28 03:54:42;;;;;;;;;12.25;12.25;;;;;4.43;54.00;102614.44;2393771;28;45552;-83
2022/02/28 03:55:52;;;;;;;;;10.50;9.50;;;;;4.45;53.99;102611.88;2396262;28;45386;-83
2022/02/28 03:57:03;;;;;;;;;13.50;10.75;;;;;4.45;53.83;102606.66;2392245;28;47781;-83
2022/02/28 03:58:13;;;;;;;;;9.00;9.00;;;;;4.45;53.95;102612.75;2393170;28;45322;-84
2022/02/28 03:59:23;;;;;;;;;14.00;11.00;;;;;4.43;53.81;102606.63;2396268;28;46698;-84
2022/02/28 04:00:34;;;;;;;;;15.00;12.00;;;;;4.44;53.93;102610.13;2394052;28;44533;-84
2022/02/28 04:01:44;;;;;;;;;14.75;11.25;;;;;4.45;53.93;102604.06;2392907;28;47044;-84
2022/02/28 04:02:55;;;;;;;;;12.00;10.75;;;;;4.43;53.62;102606.63;2393100;28;45302;-89
2022/02/28 04:04:05;;;;;;;;;12.00;9.25;;;;;4.45;53.99;102609.25;2393545;28;46226;-92
2022/02/28 04:05:17;;;;;;;;;13.50;12.75;;;;;4.46;54.39;102609.31;2400973;28;45318;-87
2022/02/28 04:06:29;;;;;;;;;12.75;10.00;;;;;4.45;53.77;102599.72;2391138;28;48010;-88
2022/02/28 04:07:40;;;;;;;;;16.75;11.50;;;;;4.47;54.06;102608.47;2392930;28;45341;-86
2022/02/28 04:08:50;;;;;;;;;12.00;10.75;;;;;4.44;54.52;102605.81;2393476;28;46397;-86
2022/02/28 04:10:03;;;;;;;;;13.00;13.00;;;;;4.46;53.71;102598.91;2393428;28;45226;-86
2022/02/28 04:11:14;;;;;;;;;13.75;11.50;;;;;4.47;53.84;102603.25;2393519;28;45299;-90
2022/02/28 04:12:24;;;;;;;;;14.75;12.25;;;;;4.49;53.94;102608.50;2393211;28;45304;-85
2022/02/28 04:13:35;;;;;;;;;12.00;12.00;;;;;4.48;53.80;102598.94;2392575;28;47419;-87
2022/02/28 04:14:46;;;;;;;;;13.25;11.00;;;;;4.47;53.95;102598.03;2393309;28;44768;-86
2022/02/28 04:15:56;;;;;;;;;12.75;11.00;;;;;4.50;53.97;102605.94;2393734;28;45779;-84
2022/02/28 04:17:08;;;;;;;;;13.00;10.25;;;;;4.53;53.99;102604.22;2393790;28;44702;-85
2022/02/28 04:18:18;;;;;;;;;11.50;11.00;;;;;4.52;53.83;102605.94;2393593;28;45632;-84
2022/02/28 04:19:29;;;;;;;;;10.25;10.25;;;;;4.55;53.58;102607.75;2399034;28;45435;-81
2022/02/28 04:20:39;;;;;;;;;15.00;11.00;;;;;4.54;54.14;102612.09;2392766;28;46997;-83
2022/02/28 04:21:49;;;;;;;;;15.00;11.50;;;;;4.53;53.49;102604.22;2393145;28;44750;-83
2022/02/28 04:23:00;;;;;;;;;10.75;10.25;;;;;4.57;53.88;102616.47;2393446;28;45465;-84
2022/02/28 04:24:10;;;;;;;;;11.75;10.00;;;;;4.58;53.58;102618.25;2393868;28;45183;-83
2022/02/28 04:25:21;;;;;;;;;15.75;10.75;;;;;4.57;53.59;102619.06;2398123;28;46045;-83
2022/02/28 04:26:31;;;;;;;;;13.50;9.25;;;;;4.58;53.95;102626.06;2398843;28;45414;-84
2022/02/28 04:27:41;;;;;;;;;15.50;11.00;;;;;4.56;53.83;102620.81;2393557;28;45498;-84
2022/02/28 04:28:52;;;;;;;;;12.00;10.00;;;;;4.57;53.33;102626.88;2393796;28;45273;-83
2022/02/28 04:30:03;;;;;;;;;13.50;12.00;;;;;4.58;53.22;102636.47;2393703;28;45353;-85
2022/02/28 04:31:13;;;;;;;;;14.50;12.50;;;;;4.57;53.29;102619.06;2392260;28;45252;-85
2022/02/28 04:32:24;;;;;;;;;12.50;10.50;;;;;4.57;53.30;102622.56;2393082;28;45683;-85
2022/02/28 04:33:34;;;;;;;;;16.25;12.00;;;;;4.58;53.29;102628.66;2392833;28;45221;-84
2022/02/28 04:34:45;;;;;;;;;14.50;13.00;;;;;4.59;53.23;102622.63;2392957;28;46258;-84
2022/02/28 04:35:55;;;;;;;;;15.00;12.00;;;;;4.58;53.67;102623.47;2393649;28;45214;-85
2022/02/28 04:37:05;;;;;;;;;12.00;11.50;;;;;4.58;53.45;102624.34;2392413;28;47267;-86
2022/02/28 04:38:16;;;;;;;;;9.25;9.25;;;;;4.58;53.76;102626.94;2386431;28;44600;-82
2022/02/28 04:39:26;;;;;;;;;14.00;11.25;;;;;4.59;53.46;102626.09;2392973;28;45338;-85
2022/02/28 04:40:37;;;;;;;;;13.25;10.75;;;;;4.58;53.47;102618.25;2393753;28;44612;-85
2022/02/28 04:41:47;;;;;;;;;16.75;15.25;;;;;4.58;53.83;102620.84;2393542;28;46156;-84
2022/02/28 04:42:58;;;;;;;;;13.00;13.00;;;;;4.58;53.29;102626.94;2393783;28;45338;-84
2022/02/28 04:44:08;;;;;;;;;10.00;10.00;;;;;4.56;53.03;102625.16;2393439;28;45589;-84
2022/02/28 04:45:19;;;;;;;;;15.50;13.50;;;;;4.55;53.71;102629.47;2393452;28;45223;-84
2022/02/28 04:46:29;;;;;;;;;17.00;10.25;;;;;4.53;53.42;102630.28;2393599;28;46112;-84
2022/02/28 04:47:39;;;;;;;;;12.50;10.00;;;;;4.51;53.44;102627.66;2393703;28;45252;-84
2022/02/28 04:48:50;;;;;;;;;16.25;11.00;;;;;4.47;53.58;102621.47;2392585;28;47288;-84
2022/02/28 04:50:00;;;;;;;;;16.25;14.25;;;;;4.47;53.64;102620.63;2400032;28;45320;-85
2022/02/28 04:51:11;;;;;;;;;16.25;11.00;;;;;4.46;53.81;102629.25;2393556;28;45225;-84
2022/02/28 04:52:21;;;;;;;;;22.50;12.50;;;;;4.42;53.45;102625.69;2401924;28;45246;-83
2022/02/28 04:53:32;;;;;;;;;13.50;11.50;;;;;4.40;53.66;102624.78;2399658;28;45308;-83
2022/02/28 04:54:42;;;;;;;;;15.75;15.25;;;;;4.39;54.10;102628.25;2394826;28;45195;-82
2022/02/28 04:55:53;;;;;;;;;13.25;10.75;;;;;4.40;53.47;102627.38;2394692;28;46277;-83
2022/02/28 04:57:04;;;;;;;;;15.00;12.50;;;;;4.37;53.54;102629.94;2393425;28;45249;-83
2022/02/28 04:58:14;;;;;;;;;18.00;14.50;;;;;4.35;53.90;102627.28;2393312;28;46024;-83
2022/02/28 04:59:24;;;;;;;;;13.00;11.75;;;;;4.34;53.45;102627.25;2394668;28;45356;-83
2022/02/28 05:00:35;;;;;;;;;11.00;10.75;;;;;4.32;54.12;102621.13;2402394;28;45361;-83
2022/02/28 05:01:45;;;;;;;;;17.75;13.00;;;;;4.28;53.97;102626.25;2394965;28;45325;-83
2022/02/28 05:02:56;;;;;;;;;12.50;12.25;;;;;4.30;54.42;102628.88;2392457;28;47044;-83
2022/02/28 05:04:06;;;;;;;;;11.25;9.75;;;;;4.25;54.27;102631.38;2392999;28;45242;-81
2022/02/28 05:05:17;;;;;;;;;15.00;12.25;;;;;4.26;54.38;102633.16;2393173;28;46218;-80
2022/02/28 05:06:28;;;;;;;;;14.00;12.25;;;;;4.25;54.41;102630.50;2393031;28;45468;-81
2022/02/28 05:07:39;;;;;;;;;17.50;12.25;;;;;4.24;54.27;102637.44;2393045;28;45303;-81
2022/02/28 05:08:49;;;;;;;;;14.50;13.00;;;;;4.24;54.39;102634.84;2393307;28;45215;-81
2022/02/28 05:10:00;;;;;;;;;11.00;11.00;;;;;4.24;54.00;102633.97;2393387;28;45527;-81
2022/02/28 05:11:11;;;;;;;;;16.25;16.25;;;;;4.21;54.36;102637.38;2393155;28;45414;-80
2022/02/28 05:12:21;;;;;;;;;16.25;14.00;;;;;4.19;53.76;102641.66;2393200;28;46347;-86
2022/02/28 05:13:32;;;;;;;;;16.50;13.25;;;;;4.19;54.45;102646.88;2392079;28;44823;-89
2022/02/28 05:14:42;;;;;;;;;14.25;11.25;;;;;4.19;53.97;102645.97;2392510;28;47004;-89
2022/02/28 05:15:53;;;;;;;;;17.00;13.25;;;;;4.13;54.19;102636.28;2395473;28;44644;-92
2022/02/28 05:17:03;;;;;;;;;12.25;10.00;;;;;4.14;53.92;102644.16;2399625;28;45234;-83
2022/02/28 05:18:14;;;;;;;;;15.00;11.25;;;;;4.11;54.25;102645.78;2394817;28;45435;-89
2022/02/28 05:19:25;;;;;;;;;12.25;9.75;;;;;4.10;54.34;102644.03;2393226;28;46457;-87
2022/02/28 05:20:35;;;;;;;;;15.75;13.50;;;;;4.08;54.57;102643.09;2393131;28;45364;-87
2022/02/28 05:21:45;;;;;;;;;11.50;11.50;;;;;4.07;54.73;102649.16;2393074;28;46362;-86
2022/02/28 05:22:56;;;;;;;;;11.50;9.00;;;;;4.03;54.69;102650.78;2393241;28;44709;-87
2022/02/28 05:24:06;;;;;;;;;13.50;13.00;;;;;4.02;54.39;102654.25;2393256;28;45412;-87
2022/02/28 05:25:17;;;;;;;;;17.25;15.25;;;;;4.00;54.57;102648.13;2392571;28;44782;-86